createdAt,value
2023-02-17T00:03:38.510Z,13.50
2023-02-17T00:08:40.566Z,13.60
2023-02-17T00:13:42.804Z,13.60
2023-02-17T00:18:45.045Z,13.60
2023-02-17T00:23:47.534Z,13.80
2023-02-17T00:28:49.691Z,13.60
2023-02-17T00:33:54.087Z,13.70
2023-02-17T00:38:57.073Z,13.70
2023-02-17T00:43:59.439Z,14.10
2023-02-17T00:49:01.462Z,13.80
2023-02-17T00:54:03.531Z,13.90
2023-02-17T00:59:09.004Z,14.00
2023-02-17T01:04:11.023Z,14.00
2023-02-17T01:09:13.820Z,14.00
2023-02-17T01:14:15.957Z,14.20
2023-02-17T01:19:19.361Z,14.10
2023-02-17T01:24:22.620Z,14.00
2023-02-17T01:29:24.656Z,14.30
2023-02-17T01:34:26.717Z,14.10
2023-02-17T01:39:28.878Z,14.30
2023-02-17T01:44:31.900Z,14.10
2023-02-17T01:49:37.729Z,14.00
2023-02-17T01:54:42.377Z,13.80
2023-02-17T01:59:45.118Z,14.00
2023-02-17T02:04:48.508Z,14.00
2023-02-17T02:09:53.711Z,13.90
2023-02-17T02:14:57.306Z,14.20
2023-02-17T02:19:59.308Z,14.00
2023-02-17T02:25:16.650Z,14.10
2023-02-17T02:30:22.329Z,14.10
2023-02-17T02:35:42.656Z,14.10
2023-02-17T02:40:47.537Z,14.30
2023-02-17T02:45:49.626Z,14.10
2023-02-17T02:51:10.456Z,14.10
2023-02-17T02:56:12.755Z,14.00
2023-02-17T03:01:27.242Z,14.10
2023-02-17T03:06:29.282Z,14.10
2023-02-17T03:11:34.080Z,14.10
2023-02-17T03:16:37.532Z,14.10
2023-02-17T03:21:39.586Z,14.10
2023-02-17T03:26:42.569Z,14.30
2023-02-17T03:31:44.755Z,14.10
2023-02-17T03:36:46.879Z,14.20
2023-02-17T03:41:51.521Z,14.20
2023-02-17T03:46:55.664Z,14.10
2023-02-17T03:51:59.424Z,14.40
2023-02-17T03:57:01.873Z,14.20
2023-02-17T04:02:04.130Z,14.10
2023-02-17T04:07:06.163Z,14.10
2023-02-17T04:12:08.301Z,14.10
2023-02-17T04:17:10.379Z,14.00
2023-02-17T04:22:12.448Z,14.10
2023-02-17T04:27:14.456Z,14.10
2023-02-17T04:32:16.535Z,14.10
2023-02-17T04:37:18.511Z,14.30
2023-02-17T04:42:20.516Z,14.10
2023-02-17T04:47:22.930Z,14.30
2023-02-17T04:52:24.945Z,14.10
2023-02-17T04:57:27.273Z,14.10
2023-02-17T05:02:30.435Z,14.10
2023-02-17T05:07:32.436Z,14.00
2023-02-17T05:12:35.436Z,14.00
2023-02-17T05:17:37.540Z,14.00
2023-02-17T05:22:39.549Z,14.00
2023-02-17T05:27:41.602Z,14.00
2023-02-17T05:32:43.617Z,14.00
2023-02-17T05:37:45.650Z,14.00
2023-02-17T05:42:47.834Z,14.00
2023-02-17T05:47:49.832Z,14.20
2023-02-17T05:52:52.071Z,14.00
2023-02-17T05:57:54.089Z,14.00
2023-02-17T06:02:56.230Z,14.00
2023-02-17T06:07:58.334Z,14.00
2023-02-17T06:13:00.351Z,14.00
2023-02-17T06:18:02.382Z,14.00
2023-02-17T06:23:04.450Z,14.20
2023-02-17T06:28:06.466Z,13.90
2023-02-17T06:33:08.546Z,14.10
2023-02-17T06:38:10.550Z,14.30
2023-02-17T06:43:12.560Z,14.00
2023-02-17T06:48:14.572Z,14.00
2023-02-17T06:53:16.611Z,14.00
2023-02-17T06:58:18.580Z,14.00
2023-02-17T07:03:20.634Z,14.00
2023-02-17T07:08:22.740Z,14.00
2023-02-17T07:13:24.783Z,14.00
2023-02-17T07:18:26.817Z,14.10
2023-02-17T07:23:28.824Z,14.10
2023-02-17T07:33:33.464Z,14.10
2023-02-17T07:38:36.052Z,14.10
2023-02-17T07:43:38.148Z,14.10
2023-02-17T07:48:40.733Z,14.20
2023-02-17T07:53:43.160Z,14.20
2023-02-17T07:58:45.218Z,14.20
2023-02-17T08:03:47.759Z,14.30
2023-02-17T08:09:08.503Z,14.40
2023-02-17T08:14:12.852Z,14.30
2023-02-17T08:19:15.299Z,14.30
2023-02-17T08:24:19.392Z,14.40
2023-02-17T08:29:21.751Z,14.70
2023-02-17T08:34:23.734Z,14.50
2023-02-17T08:39:27.102Z,14.50
2023-02-17T08:44:29.367Z,14.80
2023-02-17T08:49:32.617Z,14.90
2023-02-17T08:54:34.683Z,14.60
2023-02-17T08:59:36.802Z,14.60
2023-02-17T09:04:38.969Z,14.50
2023-02-17T09:09:41.294Z,14.60
2023-02-17T09:14:43.356Z,14.60
2023-02-17T09:19:45.439Z,14.60
2023-02-17T09:24:47.455Z,14.60
2023-02-17T09:29:49.566Z,14.60
2023-02-17T09:34:52.809Z,14.70
2023-02-17T09:39:54.901Z,14.80
2023-02-17T09:44:56.962Z,14.80
2023-02-17T09:50:04.453Z,15.00
2023-02-17T09:55:08.180Z,14.90
2023-02-17T10:00:17.342Z,15.00
2023-02-17T10:05:22.507Z,15.00
2023-02-17T10:10:27.924Z,15.00
2023-02-17T10:15:31.787Z,15.00
2023-02-17T10:20:42.302Z,15.10
2023-02-17T10:26:02.304Z,15.10
2023-02-17T10:31:07.487Z,15.30
2023-02-17T10:36:26.277Z,15.20
2023-02-17T10:41:34.416Z,15.20
2023-02-17T10:46:36.444Z,15.50
2023-02-17T10:51:38.429Z,15.20
2023-02-17T10:56:52.083Z,15.40
2023-02-17T11:01:57.571Z,15.50
2023-02-17T11:07:01.881Z,15.70
2023-02-17T11:12:10.600Z,15.60
2023-02-17T11:17:14.792Z,15.80
2023-02-17T11:22:29.815Z,15.90
2023-02-17T11:27:31.904Z,15.90
2023-02-17T11:32:34.116Z,16.10
2023-02-17T11:37:42.043Z,16.20
2023-02-17T11:42:44.036Z,16.50
2023-02-17T11:47:58.579Z,16.50
2023-02-17T11:53:17.715Z,16.50
2023-02-17T11:58:28.767Z,16.70
2023-02-17T12:03:42.366Z,16.70
2023-02-17T12:08:51.867Z,16.60
2023-02-17T12:14:10.681Z,16.90
2023-02-17T12:19:29.815Z,17.00
2023-02-17T12:24:31.820Z,17.30
2023-02-17T12:29:34.235Z,17.20
2023-02-17T12:34:44.024Z,17.40
2023-02-17T12:39:54.819Z,17.50
2023-02-17T12:44:59.307Z,17.90
2023-02-17T12:50:03.834Z,17.50
2023-02-17T12:55:12.060Z,17.70
2023-02-17T13:00:22.109Z,17.40
2023-02-17T13:05:42.461Z,17.20
2023-02-17T13:10:44.565Z,17.10
2023-02-17T13:15:46.919Z,17.10
2023-02-17T13:20:56.961Z,17.00
2023-02-17T13:26:11.292Z,16.90
2023-02-17T13:31:15.605Z,17.00
2023-02-17T13:36:37.903Z,16.90
2023-02-17T13:41:47.593Z,16.80
2023-02-17T13:46:50.574Z,16.90
2023-02-17T13:51:52.575Z,17.00
2023-02-17T13:56:56.074Z,17.10
2023-02-17T14:01:58.177Z,17.20
2023-02-17T14:07:03.722Z,17.20
2023-02-17T14:12:07.210Z,17.20
2023-02-17T14:17:26.902Z,17.10
2023-02-17T14:22:30.679Z,17.00
2023-02-17T14:27:46.170Z,17.00
2023-02-17T14:32:48.324Z,16.90
2023-02-17T14:37:50.492Z,16.70
2023-02-17T14:42:52.542Z,16.70
2023-02-17T14:47:54.618Z,16.60
2023-02-17T14:52:56.676Z,16.40
2023-02-17T14:57:58.725Z,16.40
2023-02-17T15:03:00.787Z,16.50
2023-02-17T15:08:02.890Z,16.70
2023-02-17T15:13:04.957Z,16.40
2023-02-17T15:18:07.013Z,16.40
2023-02-17T15:23:13.352Z,16.40
2023-02-17T15:28:16.904Z,16.30
2023-02-17T15:33:20.154Z,16.30
2023-02-17T15:38:22.848Z,16.60
2023-02-17T15:43:28.222Z,16.30
2023-02-17T15:48:30.760Z,16.30
2023-02-17T15:53:34.436Z,16.20
2023-02-17T15:58:36.529Z,16.30
2023-02-17T16:03:38.589Z,16.40
2023-02-17T16:08:40.664Z,16.10
2023-02-17T16:13:44.101Z,16.10
2023-02-17T16:18:46.648Z,16.20
2023-02-17T16:23:48.699Z,16.20
2023-02-17T16:28:50.712Z,16.20
2023-02-17T16:33:59.367Z,15.90
2023-02-17T16:39:03.907Z,16.00
2023-02-17T16:44:07.670Z,16.00
2023-02-17T16:49:20.923Z,16.00
2023-02-17T16:54:23.480Z,16.00
2023-02-17T16:59:26.038Z,16.10
2023-02-17T17:04:28.075Z,16.10
2023-02-17T17:09:30.744Z,16.00
2023-02-17T17:14:32.804Z,16.20
2023-02-17T17:19:34.871Z,16.20
2023-02-17T17:24:37.030Z,16.20
2023-02-17T17:29:39.045Z,16.10
2023-02-17T17:34:41.151Z,16.00
2023-02-17T17:39:43.170Z,16.00
2023-02-17T17:44:45.261Z,16.00
2023-02-17T17:49:47.374Z,16.00
2023-02-17T17:54:49.445Z,15.90
2023-02-17T17:59:51.866Z,15.90
2023-02-17T18:04:54.069Z,15.90
2023-02-17T18:09:56.248Z,15.90
2023-02-17T18:15:02.547Z,15.80
2023-02-17T18:20:05.588Z,15.80
2023-02-17T18:25:08.252Z,15.80
2023-02-17T18:30:11.460Z,15.80
2023-02-17T18:35:14.075Z,15.60
2023-02-17T18:40:18.350Z,15.70
2023-02-17T18:45:20.597Z,15.70
2023-02-17T18:50:22.641Z,15.70
2023-02-17T18:55:24.707Z,15.70
2023-02-17T19:00:26.787Z,15.80
2023-02-17T19:05:29.160Z,15.80
2023-02-17T19:10:31.174Z,15.80
2023-02-17T19:15:33.783Z,15.60
2023-02-17T19:20:35.899Z,15.70
2023-02-17T19:25:38.358Z,15.70
2023-02-17T19:30:40.421Z,15.80
2023-02-17T19:35:45.485Z,15.80
2023-02-17T19:40:47.720Z,15.80
2023-02-17T19:45:49.786Z,15.80
2023-02-17T19:50:52.442Z,16.00
2023-02-17T19:55:54.462Z,15.80
2023-02-17T20:01:03.274Z,15.70
2023-02-17T20:06:06.791Z,15.70
2023-02-17T20:11:10.121Z,15.60
2023-02-17T20:16:12.979Z,15.70
2023-02-17T20:21:19.736Z,15.60
2023-02-17T20:26:23.890Z,15.60
2023-02-17T20:31:27.014Z,15.90
2023-02-17T20:36:29.314Z,15.50
2023-02-17T20:41:31.367Z,15.60
2023-02-17T20:46:33.455Z,15.50
2023-02-17T20:51:35.672Z,15.50
2023-02-17T20:56:38.680Z,15.40
2023-02-17T21:01:41.440Z,15.60
2023-02-17T21:06:45.647Z,15.50
2023-02-17T21:11:47.941Z,15.60
2023-02-17T21:16:50.154Z,15.50
2023-02-17T21:21:52.181Z,15.40
2023-02-17T21:26:54.199Z,15.60
2023-02-17T21:31:56.379Z,15.40
2023-02-17T21:36:58.466Z,15.50
2023-02-17T21:42:00.484Z,15.70
2023-02-17T21:47:02.492Z,15.70
2023-02-17T21:52:05.009Z,15.50
2023-02-17T21:57:07.124Z,15.50
2023-02-17T22:02:10.701Z,15.50
2023-02-17T22:07:12.819Z,15.50
2023-02-17T22:12:14.826Z,15.50
2023-02-17T22:17:17.278Z,15.50
2023-02-17T22:22:19.308Z,15.50
2023-02-17T22:27:21.366Z,15.50
2023-02-17T22:32:23.498Z,15.50
2023-02-17T22:37:25.580Z,15.70
2023-02-17T22:42:28.041Z,15.70
2023-02-17T22:47:30.065Z,15.80
2023-02-17T22:52:32.089Z,15.70
2023-02-17T22:57:34.074Z,15.70
2023-02-17T23:02:36.120Z,15.70
2023-02-17T23:07:38.296Z,15.80
2023-02-17T23:12:40.296Z,15.70
2023-02-17T23:17:57.544Z,15.80
2023-02-17T23:22:59.557Z,15.70
2023-02-17T23:28:01.899Z,15.80
2023-02-17T23:33:03.984Z,15.80
2023-02-17T23:38:05.953Z,16.00
2023-02-17T23:43:08.390Z,15.80
2023-02-17T23:48:10.526Z,15.90
2023-02-17T23:53:12.587Z,15.80
2023-02-17T23:58:15.103Z,15.90
